Tiempo atmosférico en la estación meteorológica de Ávila, Ávila (1130 m.)



Fecha
DESCASC
Temp. máxima en grados centígrados (hora)
DESCASC
Temp. mínima en grados centígrados (hora)
DESCASC
Temp. media en grados centígrados
DESCASC
Racha de viento máxima en m/sg (hora)
DESCASC
Velocidad máxima media en intervalos de 10 minutos(hora)
DESCASC
Precipitaciones diarias en mm
DESCASC
Precipitaciones de 00:00 a 06:00 en mm
DESCASC
Precipitaciones de 06:00 a 12:00 en mm
DESCASC
Precipitaciones de 12:00 a 18:00 en mm
DESCASC
Precipitaciones de 18:00 a 24:00 en mm
DESCASC
27-01-2020 10.7 (14:50) -0.5 (06:10) 5.1 10 (15:30) 5.56 (15:00) 0 0 0 0 0
26-01-2020 8.8 (14:30) 2.3 (08:00) 5.6 7.5 (17:50) 4.72 (17:50) 0.2 0.2 0 0 0
25-01-2020 7.8 (13:30) 3.1 (00:00) 5.5 8.06 (13:30) 4.72 (13:40) 0.6 0 0 0.2 0.4
24-01-2020 7.7 (15:50) 2.9 (00:00) 5.3 10.83 (05:00) 6.11 (04:50) 0.6 0 0.6 0 0
23-01-2020 6.2 (15:00) 2 (00:00) 4.1 11.39 (23:59) 5.83 (23:10) 0 0 0 0 0
22-01-2020 5.8 (16:40) 0.8 (00:00) 3.3 10.83 (02:30) 5.83 (10:20) 0.8 0 0.4 0.2 0.2
21-01-2020 2.5 (17:00) -4.5 (-00:0) -1 7.78 (18:20) 4.72 (18:30) 3.4 0.6 0.2 0.4 2.2
20-01-2020 -0.3 (14:20) -4.7 (-00:0) -2.5 10.28 (00:10) 6.11 (03:40) 2.4 0 0 0 2.4
19-01-2020 4.3 (15:00) -2.3 (-00:0) 1 20.28 (12:40) 11.94 (12:50) 1.2 0.8 0.4 0 0
18-01-2020 11.6 (17:20) 3 (00:00) 7.3 12.78 (19:40) 6.67 (16:10) 1.2 0 0.2 0 1
17-01-2020 9.2 (15:40) 0.7 (00:00) 4.9 10.83 (11:20) 6.11 (11:20) 0.2 0 0.2 0 0
16-01-2020 11.5 (14:20) 4.8 (00:00) 8.2 15.28 (13:30) 8.61 (13:20) 0 0 0 0 0
15-01-2020 9.1 (14:20) 3.3 (00:00) 6.2 12.5 (05:10) 6.39 (08:00) 0 0 0 0 0
14-01-2020 9.3 (15:30) -4 (-00:0) 2.7 7.78 (20:50) 3.89 (21:00) 0 0 0 0 0
13-01-2020 8.2 (15:30) -2.9 (-00:0) 2.6 6.67 (18:30) 3.89 (19:20) 0 0 0 0 0
12-01-2020 9.4 (13:10) -4.8 (-00:0) 2.3 6.11 (14:00) 4.17 (14:00) 0 0 0 0 0
11-01-2020 10.8 (16:10) -3.6 (-00:0) 3.6 4.17 (17:40) 2.78 (17:40) 0 0 0 0 0
10-01-2020 5.5 (14:50) -0.5 (-00:0) 2.5 10 (16:20) 6.11 (17:20) 0 0 0 0 0
09-01-2020 13 (16:50) 1.1 (00:00) 7.1 11.11 (18:10) 5.83 (18:10) 0 0 0 0 0
08-01-2020 15.1 (15:00) -1.3 (-00:0) 6.9 5 (16:00) 3.06 (17:10) 0 0 0 0 0
07-01-2020 14.2 (14:20) -1.9 (-00:0) 6.1 4.17 (15:30) 2.78 (16:00) 0 0 0 0 0
06-01-2020 15.1 (15:20) -1.5 (-00:0) 6.8 5.28 (19:40) 3.33 (19:40) 0 0 0 0 0
05-01-2020 12.6 (15:00) -4.4 (-00:0) 4.1 3.89 (15:40) 2.5 (15:40) 0 0 0 0 0
04-01-2020 3 (16:00) -1.7 (-00:0) 0.6 6.39 (19:00) 3.33 (12:50) 0 0 0 0 0
03-01-2020 5.7 (16:30) -0.7 (-00:0) 2.5 5.83 (15:00) 3.89 (16:40) 0 0 0 0 0
02-01-2020 15.2 (14:30) -0.8 (-00:0) 7.2 5 (15:00) 3.06 (14:50) 0 0 0 0 0
01-01-2020 17.7 (16:40) -1.2 (-00:0) 8.3 3.89 (14:30) 2.5 (14:30) 0 0 0 0 0
31-12-2019 17.2 (14:40) -0.4 (00:00) 8.4 4.72 (16:10) 3.06 (16:00) -- -- 0 0 0
30-12-2019 -- (--) -- (--) -- -- (--) -- (--) -- 0 0 0 --
29-12-2019 17 (13:50) 0.1 (00:00) 8.6 4.44 (14:40) 3.06 (14:40) 0 0 0 0 0

Gráficas

Temp. máximas Temp. mínimas Temp. medias Precipitaciones Rachas de viento máximas Velocidades máximas media en intervalos de 10 minutos

Datos horarios

Fecha y hora oficial Temperatura (ºC) Velocidad del viento (km/h) Dirección del viento Racha (km/h) Dirección de racha Precipitación (mm) Presión (hPa) Tendencia (hPa) Humedad (%)
2020-01-27 23:00:00 7.6 6 Sudoeste 17 Sudoeste 0 891.8 -0.1 78
2020-01-27 22:00:00 7.5 4 Sur 18 Sudeste 0 891.9 0.8 75
2020-01-27 21:00:00 7.2 8 Sudeste 26 Sudoeste 0 891.7 0.7 74
2020-01-27 20:00:00 8 11 Oeste 27 Oeste 0 891.9 1.1 74
2020-01-27 19:00:00 8.1 13 Oeste 30 Sudoeste 0 891.1 0 74
2020-01-27 18:00:00 8.5 12 Oeste 27 Oeste 0 891 -0.1 71
2020-01-27 17:00:00 9.1 15 Oeste 34 Sudoeste 0 890.8 -0.8 67
2020-01-27 16:00:00 9.2 15 Oeste 36 Oeste 0 891.1 -1.3 67
2020-01-27 15:00:00 10.4 20 Sudoeste 32 Oeste 0 891.1 -1.8 63
2020-01-27 14:00:00 9.1 10 Sur 21 Sudeste 0 891.6 -1.2 58
2020-01-27 13:00:00 7.9 8 Sudoeste 21 Sudeste 0 892.4 -0.1 61
2020-01-27 12:00:00 6.4 11 Sudeste 20 Sudeste 0 892.9 0.4 69
2020-01-27 11:00:00 4.3 13 Sudeste 23 Sudeste 0 892.8 0.1 75
2020-01-27 10:00:00 2.2 10 Sudeste 20 Sudeste 0 892.5 -0.2 81
2020-01-27 09:00:00 0 3 Sur 12 Sur 0 892.5 -0.4 87
2020-01-27 08:00:00 0.3 4 Sudeste 10 Sudeste 0 892.7 -0.7 86
2020-01-27 07:00:00 0.6 7 Sudeste 14 Sudeste 0 892.7 -0.8 85
2020-01-27 06:00:00 -0.4 5 Sur 15 Sudoeste 0 892.9 -1 91
2020-01-27 05:00:00 -0.1 5 Noroeste 11 Oeste 0 893.4 -1.1 88
2020-01-27 04:00:00 0.7 4 Este 9 Sudeste 0 893.5 -1.1 87
2020-01-27 03:00:00 1.7 5 Sudeste 12 Este 0 893.9 -0.7 82
2020-01-27 02:00:00 1.6 4 Sur 7 Sudeste 0 894.5 -0.3 84
2020-01-27 01:00:00 2.6 4 Sudeste 10 Sur 0 894.6 -0.1 80
2020-01-27 00:00:00 4.2 5 Sur 10 Sudoeste 0 894.6 0 74
2020-01-26 23:00:00 4.7 6 Sudoeste 10 Sudoeste 0 894.8 0.6 73
2020-01-26 22:00:00 5.2 5 Oeste 12 Oeste 0 894.7 0.9 70
2020-01-26 21:00:00 5.3 8 Oeste 16 Noroeste 0 894.6 1.3 73
2020-01-26 20:00:00 5.3 7 Noroeste 16 Noroeste 0 894.2 1.2 74
2020-01-26 19:00:00 5.5 10 Noroeste 19 Noroeste 0 893.8 1.3 67
2020-01-26 18:00:00 6 13 Noroeste 27 Oeste 0 893.3 0.6 65
2020-01-26 17:00:00 7.1 12 Noroeste 23 Noroeste 0 893 0 60
2020-01-26 16:00:00 8.3 12 Oeste 21 Noroeste 0 892.5 -0.9 56
2020-01-26 15:00:00 7.3 10 Noroeste 19 Noroeste 0 892.7 -1 61
2020-01-26 14:00:00 7.8 9 Oeste 20 Noroeste 0 893 -0.3 60
2020-01-26 13:00:00 7 13 Noroeste 21 Noroeste 0 893.4 0.9 64
2020-01-26 12:00:00 5.5 9 Noroeste 14 Noroeste 0 893.7 1.5 73
2020-01-26 11:00:00 5.2 4 Sudoeste 11 Oeste 0 893.3 1.8 84
2020-01-26 10:00:00 3 5 Sudoeste 10 Oeste 0 892.5 1.5 91
2020-01-26 09:00:00 2.4 5 Sudoeste 9 Sudoeste 0 892.2 1.5 92
2020-01-26 08:00:00 2.3 3 Oeste 13 Noroeste 0 891.5 1.5 93
2020-01-26 07:00:00 2.6 6 Noroeste 19 Noroeste 0 891 1.2 94
2020-01-26 06:00:00 2.4 10 Noroeste 19 Noroeste 0 890.7 1 93
2020-01-26 05:00:00 2.9 8 Noroeste 14 Noroeste 0 890 0.6 94
2020-01-26 04:00:00 3.1 6 Noroeste 24 Noroeste 0 889.8 0.6 97
2020-01-26 03:00:00 3.5 8 Noroeste 13 Noroeste 0.2 889.7 0.7 96
2020-01-26 02:00:00 3.5 7 Noroeste 9 Oeste 0 889.4 0.6 97
2020-01-26 01:00:00 3.4 6 Oeste 13 Oeste 0 889.2 0.6 96
2020-01-26 00:00:00 3.5 6 Sudoeste 14 Sudoeste 0.2 889 0.9 96
2020-01-25 23:00:00 3.9 2 Oeste 8 Norte 0 888.8 1.3 95
2020-01-25 22:00:00 3.8 7 Norte 13 Norte 0.2 888.6 1.8 95
2020-01-25 21:00:00 4.5 7 Norte 11 Norte 0 888.1 1.8 94
2020-01-25 20:00:00 4.7 6 Norte 10 Norte 0 887.5 1.4 90
2020-01-25 19:00:00 4.7 5 Sudeste 13 Sudeste 0 886.8 0.7 89
2020-01-25 18:00:00 5.6 8 Sudeste 18 Este 0.2 886.3 0 85
2020-01-25 17:00:00 5.7 12 Sudeste 19 Sudeste 0 886.1 -0.4 85
2020-01-25 16:00:00 5.8 10 Sudeste 18 Sudeste 0 886.1 -0.9 83
2020-01-25 15:00:00 6.4 9 Sudeste 23 Sudeste 0 886.3 -1.3 79
2020-01-25 14:00:00 7.6 8 Sur 29 Sur 0 886.5 -0.8 73
2020-01-25 13:00:00 7.3 13 Sur 26 Sur 0 887 0.1 73
2020-01-25 12:00:00 5.9 14 Sur 24 Sur 0 887.6 1.3 82
2020-01-25 11:00:00 4.6 8 Sudeste 19 Sudeste 0 887.3 1.2 93
2020-01-25 10:00:00 4.1 11 Sudeste 22 Sur 0 886.9 1.1 95
2020-01-25 09:00:00 3.9 13 Sudeste 25 Sudeste 0 886.3 0.3 96
2020-01-25 08:00:00 3.8 13 Sudeste 23 Sudeste 0 886.1 0 95
2020-01-25 07:00:00 3.4 5 Sudeste 23 Sudeste 0 885.8 -0.9 94
2020-01-25 06:00:00 3.2 9 Sudeste 25 Sudeste 0 886 -1.2 93
2020-01-25 05:00:00 3.3 14 Sudeste 27 Sudeste 0 886.1 -1.6 93
2020-01-25 04:00:00 4 16 Sudeste 29 Sur 0 886.7 -1.6 93
2020-01-25 03:00:00 4.2 12 Sudeste 23 Sudeste 0 887.2 -1.6 92
2020-01-25 02:00:00 4.3 12 Sudeste 23 Sudeste 0 887.7 -1.5 90
2020-01-25 01:00:00 4.2 12 Sudeste 22 Sudeste 0 888.3 -1 90
2020-01-25 00:00:00 4 7 Sur 22 Sudeste 0 888.8 -0.5 93
2020-01-24 23:00:00 3.9 7 Sudeste 18 Sudeste 0 889.2 0.1 92
2020-01-24 22:00:00 3.9 10 Sudeste 17 Sudeste 0 889.3 0.2 93
2020-01-24 21:00:00 3.4 5 Sudeste 13 Sudeste 0 889.3 0.5 93
2020-01-24 20:00:00 3.7 7 Sudeste 12 Sudeste 0 889.1 0.1 90
2020-01-24 19:00:00 3.9 4 Sudeste 12 Sur 0 889.1 0.3 87
2020-01-24 18:00:00 4.7 8 Sudeste 23 Sur 0 888.8 -0.3 83
2020-01-24 17:00:00 6.2 9 Sur 24 Sur 0 889 -0.8 75
2020-01-24 16:00:00 7.3 13 Sur 25 Sur 0 888.8 -1.3 64
2020-01-24 15:00:00 7.1 12 Sudeste 28 Sudeste 0 889.1 -1.2 71
2020-01-24 14:00:00 6.4 15 Sur 33 Sur 0 889.8 -0.4 78
2020-01-24 13:00:00 6.1 14 Sudeste 30 Sudeste 0 890.1 0.4 83
2020-01-24 12:00:00 4.3 18 Sudeste 28 Sudeste 0 890.3 1 92
2020-01-24 11:00:00 3.5 11 Sudeste 27 Sudeste 0 890.2 1.2 93
2020-01-24 10:00:00 3.1 7 Sudeste 25 Sudeste 0 889.7 0.7 93
2020-01-24 09:00:00 2.9 11 Sudeste 29 Sudeste 0 889.3 0.4 93
2020-01-24 08:00:00 3.2 10 Sudeste 22 Sudeste 0.2 889 0.5 93
2020-01-24 07:00:00 3.7 12 Sudeste 23 Sudeste 0.4 889 0.4 94
2020-01-24 06:00:00 3.7 11 Sudeste 28 Sudeste 0 888.9 0.2 96
2020-01-24 05:00:00 3.8 21 Sudeste 39 Sudeste 0 888.5 -0.4 94
2020-01-24 04:00:00 3.9 17 Sudeste 30 Sudeste 0 888.6 -0.6 90
2020-01-24 03:00:00 3.8 15 Sudeste 33 Sudeste 0 888.7 0 93
2020-01-24 02:00:00 4 10 Sudeste 33 Sur 0 888.9 -0.2 91
2020-01-24 01:00:00 4.1 14 Sudeste 34 Sudeste 0 889.2 0.3 94
2020-01-24 00:00:00 4.1 21 Sudeste 41 Sudeste 0 888.7 0.2 93
2020-01-23 23:00:00 4.3 16 Sudeste 28 Sudeste 0 889.1 0.9 92
2020-01-23 22:00:00 4.2 13 Sudeste 26 Sudeste 0 888.9 1.2 90
2020-01-23 21:00:00 4.2 18 Sudeste 31 Sudeste 0 888.5 0.8 89
2020-01-23 20:00:00 4.2 17 Sudeste 33 Sudeste 0 888.2 0.4 88
2020-01-23 19:00:00 4.3 18 Sudeste 35 Sudeste 0 887.7 0.1 87
2020-01-23 18:00:00 4.8 15 Sudeste 26 Sudeste 0 887.7 0.3 84
2020-01-23 17:00:00 5.3 15 Sudeste 33 Sudeste 0 887.8 -0.2 81
2020-01-23 16:00:00 5.7 14 Sudeste 34 Sudeste 0 887.6 -1 79
2020-01-23 15:00:00 6 16 Sudeste 33 Sudeste 0 887.4 -1.6 76
2020-01-23 14:00:00 5.3 16 Sudeste 34 Sudeste 0 888 -0.7 82
2020-01-23 13:00:00 5 17 Sudeste 32 Sudeste 0 888.6 0.5 82
2020-01-23 12:00:00 4 15 Sudeste 32 Sur 0 889 1.4 88
2020-01-23 11:00:00 3.3 19 Sudeste 30 Sudeste 0 888.7 1.6 89
2020-01-23 10:00:00 2.9 12 Sudeste 23 Sudeste 0 888.1 1.1 92
2020-01-23 09:00:00 2.2 11 Sudeste 22 Sur 0 887.6 0.5 92
2020-01-23 08:00:00 2.2 10 Sudeste 27 Sudeste 0 887.1 -0.2 91
2020-01-23 07:00:00 2.5 15 Sudeste 31 Sudeste 0 887 -0.6 90
2020-01-23 06:00:00 2.4 14 Sudeste 25 Sudeste 0 887.1 -0.8 89
2020-01-23 05:00:00 2.4 11 Sudeste 21 Este 0 887.3 -0.7 89
2020-01-23 04:00:00 2.8 10 Sudeste 24 Este 0 887.6 -0.6 89
2020-01-23 03:00:00 2.7 8 Sudeste 16 Sudeste 0 887.9 -0.5 91
2020-01-23 02:00:00 2.9 8 Sudeste 22 Sudeste 0 888 -0.1 88
2020-01-23 01:00:00 2.8 8 Sudeste 18 Sudeste 0 888.2 0.2 88
2020-01-23 00:00:00 2.7 5 Sudeste 12 Sudeste 0 888.4 0.4 92
2020-01-22 23:00:00 2.9 4 Sur 7 Sur 0 888.1 0.4 90
2020-01-22 22:00:00 3.3 4 Sudeste 12 Este 0 888 0.7 88
2020-01-22 21:00:00 3.4 5 Este 17 Este 0.2 888 0.9 89
2020-01-22 20:00:00 3.7 7 Sur 12 Este 0 887.7 0.7 85
2020-01-22 19:00:00 4 7 Este 11 Este 0 887.3 -0.3 82
2020-01-22 18:00:00 4.5 5 Este 22 Este 0 887.1 -0.8 80
2020-01-22 17:00:00 5.6 11 Sudeste 21 Sudeste 0 887 -1.5 77
2020-01-22 16:00:00 5.3 9 Sudeste 30 Sudeste 0 887.6 -1.5 79
2020-01-22 15:00:00 5.4 17 Sudeste 30 Sudeste 0 887.9 -1.4 81
2020-01-22 14:00:00 4.2 14 Sudeste 29 Sudeste 0.2 888.5 -0.7 89
2020-01-22 13:00:00 4.4 19 Sudeste 35 Sudeste 0 889.1 0.2 86
2020-01-22 12:00:00 3.6 17 Sudeste 31 Este 0 889.3 0.9 89
2020-01-22 11:00:00 2.8 13 Este 33 Este 0 889.2 1 90
2020-01-22 10:00:00 2.4 15 Este 32 Este 0.2 888.9 1 90
2020-01-22 09:00:00 2.4 19 Este 31 Este 0 888.4 0.7 88
2020-01-22 08:00:00 2.7 16 Este 31 Este 0 888.2 0.3 85
2020-01-22 07:00:00 2.5 7 Este 33 Este 0.2 887.9 -0.1 87
2020-01-22 06:00:00 2.8 7 Este 28 Este 0 887.7 -0.4 85
2020-01-22 05:00:00 2.5 8 Este 25 Este 0 887.9 -0.3 88
2020-01-22 04:00:00 3 13 Este 28 Este 0 888 -0.4 86
2020-01-22 03:00:00 2 9 Nordeste 39 Este 0 888.1 -0.2 92
2020-01-22 02:00:00 1.1 9 Nordeste 21 Norte 0 888.2 0.3 94
2020-01-22 01:00:00 1.9 8 Nordeste 17 Nordeste 0 888.4 0.6 93
2020-01-22 00:00:00 1.2 8 Nordeste 16 Este 0 888.3 0.6 98
2020-01-21 23:00:00 1.8 11 Este 23 Nordeste 0 887.9 -0.1 99
2020-01-21 22:00:00 0.4 11 Norte 23 Norte 0 887.8 -0.1 98
2020-01-21 21:00:00 0.8 12 Nordeste 21 Nordeste 0.4 887.7 0 97
2020-01-21 20:00:00 1 11 Nordeste 27 Nordeste 1.2 888 0.3 96
2020-01-21 19:00:00 1.2 14 Nordeste 28 Nordeste 0.6 887.9 0.2 96
2020-01-21 18:00:00 1.4 12 Nordeste 25 Nordeste 0.4 887.7 -0.5 94
2020-01-21 17:00:00 2.5 15 Nordeste 26 Nordeste 0 887.7 -1.3 90
2020-01-21 16:00:00 1 7 Sudoeste 16 Nordeste 0 887.7 -2.2 88
2020-01-21 15:00:00 -0.1 5 Sur 9 Sur 0 888.2 -2.4 90
2020-01-21 14:00:00 0 3 Oeste 8 Noroeste 0 889 -1.9 93
2020-01-21 13:00:00 -0.7 6 Norte 12 Noroeste 0 889.9 -1.1 94
2020-01-21 12:00:00 -1.7 8 Norte 17 Noroeste 0.2 890.6 -0.3 94
2020-01-21 11:00:00 -2 9 Norte 14 Noroeste 0 890.9 -0.2 92
2020-01-21 10:00:00 -2.6 8 Noroeste 14 Noroeste 0 891 -0.2 94
2020-01-21 09:00:00 -3.8 6 Oeste 10 Oeste 0 890.9 -0.6 96
2020-01-21 08:00:00 -4.4 4 Noroeste 10 Noroeste 0 891.1 -0.9 94
2020-01-21 07:00:00 -3.7 5 Noroeste 9 Oeste 0 891.2 -1.5 93
2020-01-21 06:00:00 -3.6 5 Noroeste 8 Norte 0 891.5 -1.7 92
2020-01-21 05:00:00 -3.3 4 Norte 11 Norte 0.2 892 -1.6 92
2020-01-21 04:00:00 -3.3 4 Norte 10 Norte 0 892.7 -1.5 94
2020-01-21 03:00:00 -3.4 5 Noroeste 12 Norte 0 893.2 -1.1 95
2020-01-21 02:00:00 -3.3 9 Noroeste 14 Norte 0 893.6 -0.5 95
2020-01-21 01:00:00 -2.5 7 Norte 18 Norte 0.4 894.2 0.1 94
2020-01-21 00:00:00 -1.8 7 Nordeste 16 Nordeste 1 894.3 0.3 95
2020-01-20 23:00:00 -2.3 5 Oeste 9 Noroeste 1 894.1 0.3 94
2020-01-20 22:00:00 -2.1 5 Norte 14 Noroeste 0.2 894.1 0.5 93
2020-01-20 21:00:00 -1.9 4 Noroeste 11 Norte 0.2 894 0.8 92
2020-01-20 20:00:00 -1.9 8 Norte 16 Norte 0 893.8 0.5 89
2020-01-20 19:00:00 -2.2 9 Sudoeste 13 Sudoeste 0 893.6 0.3 90
2020-01-20 18:00:00 -2 6 Sudoeste 12 Sudoeste 0 893.2 -0.3 87
2020-01-20 17:00:00 -1 6 Nordeste 20 Este 0 893.3 -0.7 76
2020-01-20 16:00:00 -1.3 9 Nordeste 28 Nordeste 0 893.3 -1.5 76
2020-01-20 15:00:00 -0.5 14 Nordeste 26 Nordeste 0 893.5 -1.7 60
2020-01-20 14:00:00 -0.7 14 Nordeste 27 Nordeste 0 894 -1.4 55
2020-01-20 13:00:00 -1.2 13 Nordeste 27 Nordeste 0 894.8 0 58
2020-01-20 12:00:00 -2.3 12 Norte 21 Norte 0 895.2 0.5 70
2020-01-20 11:00:00 -3.4 13 Norte 23 Norte 0 895.4 1 77
2020-01-20 10:00:00 -3.8 15 Norte 23 Norte 0 894.8 0.2 79
2020-01-20 09:00:00 -4.1 8 Norte 17 Norte 0 894.7 0.2 79
2020-01-20 08:00:00 -4.7 10 Norte 21 Norte 0 894.4 -0.6 80
2020-01-20 07:00:00 -4.5 8 Noroeste 33 Norte 0 894.6 -0.7 79
2020-01-20 06:00:00 -4.1 18 Norte 30 Norte 0 894.5 -1.3 77
2020-01-20 05:00:00 -3.9 16 Norte 35 Norte 0 895 -1.2 75
2020-01-20 04:00:00 -3.5 17 Norte 35 Norte 0 895.3 -1.2 74
2020-01-20 03:00:00 -3.3 15 Norte 30 Noroeste 0 895.8 -0.8 71
2020-01-20 02:00:00 -2.7 17 Norte 29 Norte 0 896.2 -0.3 70
2020-01-20 01:00:00 -2.4 18 Norte 37 Norte 0 896.5 0.1 72
2020-01-20 00:00:00 -2.3 21 Norte 45 Norte 0 896.6 1 73
2020-01-19 23:00:00 -2.1 28 Norte 46 Norte 0 896.5 1.1 73
2020-01-19 22:00:00 -1.9 28 Norte 47 Norte 0 896.4 1.3 70
2020-01-19 21:00:00 -1.6 30 Norte 58 Norte 0 895.6 1.2 71
2020-01-19 20:00:00 -0.9 31 Norte 51 Norte 0 895.4 1.4 66
2020-01-19 19:00:00 0 27 Norte 53 Nordeste 0 895.1 0.9 61
2020-01-19 18:00:00 1.4 32 Norte 60 Nordeste 0 894.4 0.2 58
2020-01-19 17:00:00 2.8 33 Norte 56 Norte 0 894 -0.6 58
2020-01-19 16:00:00 3.8 29 Norte 59 Nordeste 0 894.2 0.6 56
2020-01-19 15:00:00 4.1 22 Norte 48 Nordeste 0 894.2 0.1 58
2020-01-19 14:00:00 2.6 25 Nordeste 58 Nordeste 0 894.6 1.5 66
2020-01-19 13:00:00 3 33 Norte 73 Norte 0 893.6 1.1 69
2020-01-19 12:00:00 2.1 33 Norte 62 Nordeste 0 894.1 1.8 79
2020-01-19 11:00:00 1.9 33 Norte 57 Norte 0 893.1 1.7 89
2020-01-19 10:00:00 1.2 33 Norte 57 Norte 0 892.5 1 97
2020-01-19 09:00:00 1.2 32 Norte 51 Norte 0 892.3 1.2 97
2020-01-19 08:00:00 0.7 20 Noroeste 34 Noroeste 0.4 891.4 0.3 99
2020-01-19 07:00:00 1.1 19 Noroeste 33 Noroeste 0 891.5 0.3 98
2020-01-19 06:00:00 1.6 17 Noroeste 33 Noroeste 0 891.1 -0.2 97
2020-01-19 05:00:00 2 22 Noroeste 41 Noroeste 0 891.1 -0.3 98
2020-01-19 04:00:00 2.4 24 Noroeste 36 Noroeste 0.2 891.2 -0.2 97
2020-01-19 03:00:00 2.3 19 Noroeste 29 Noroeste 0 891.3 -0.2 96
2020-01-19 02:00:00 2.7 18 Noroeste 34 Noroeste 0 891.4 -0.4 95
2020-01-19 01:00:00 3 17 Noroeste 32 Noroeste 0.6 891.4 -0.4 92
2020-01-19 00:00:00 3.6 17 Noroeste 32 Oeste 0 891.5 -0.2 88
2020-01-18 23:00:00 4.2 15 Noroeste 38 Noroeste 0 891.8 -0.1 87
2020-01-18 22:00:00 5.2 21 Noroeste 40 Oeste 0.2 891.8 -0.2 88
2020-01-18 21:00:00 6.2 16 Oeste 44 Oeste 0.8 891.7 1.4 84
2020-01-18 20:00:00 7.9 14 Oeste 46 Oeste 0 891.9 0.9 73
2020-01-18 19:00:00 9.1 12 Noroeste 31 Sudoeste 0 892 0 62
2020-01-18 18:00:00 10.6 15 Sudoeste 34 Sudoeste 0 890.3 -2.4 59
2020-01-18 17:00:00 10.5 14 Sudoeste 41 Sudeste 0 891 -2.8 67
2020-01-18 16:00:00 8.8 17 Sudeste 33 Sudeste 0 892 -3.3 80
2020-01-18 15:00:00 8.4 17 Sudeste 35 Sudeste 0 892.7 -3.7 80
2020-01-18 14:00:00 7.8 21 Sudeste 36 Sudeste 0 893.8 -2.8 82
2020-01-18 13:00:00 6.2 18 Sudeste 36 Sudeste 0 895.3 -1.4 87
2020-01-18 12:00:00 5.7 21 Sudeste 36 Este 0 896.4 -0.6 88
2020-01-18 11:00:00 5 20 Sudeste 37 Sudeste 0 896.6 -0.6 89
2020-01-18 10:00:00 4.5 19 Sudeste 31 Sudeste 0 896.7 -0.8 89
2020-01-18 09:00:00 4.1 13 Sudeste 30 Sudeste 0.2 897 -1.5 88
2020-01-18 08:00:00 3.9 12 Sudeste 22 Sur 0 897.2 -1.5 85
2020-01-18 07:00:00 4 9 Sur 21 Sur 0 897.5 -1.7 80
2020-01-18 06:00:00 3.9 5 Sudoeste 13 Sur 0 898.5 0 83
2020-01-18 05:00:00 4.1 6 Nordeste 12 Norte 0 898.7 -0.3 80
2020-01-18 04:00:00 4.1 9 Nordeste 17 Nordeste 0 899.2 -0.7 79
2020-01-18 03:00:00 3.9 5 Este 18 Sudeste 0 898.5 -0.6 81
2020-01-18 02:00:00 3.1 7 Sudeste 13 Sudoeste 0 899 -1.2 81
2020-01-18 01:00:00 3.6 5 Sur 24 Sur 0 899.9 -1.2 77
2020-01-18 00:00:00 4.3 11 Sudeste 20 Sudeste 0 899.1 -2.4 73
2020-01-17 23:00:00 3.3 6 Sudeste 13 Sudeste 0 900.2 -0.9 79
2020-01-17 22:00:00 3.6 7 Sudeste 11 Sudeste 0 901.1 0.3 78
2020-01-17 21:00:00 3.9 0 Calma 5 Sudoeste 0 901.5 1 78
2020-01-17 20:00:00 4.3 3 Sudeste 12 Noroeste 0 901.1 0.9 75
2020-01-17 19:00:00 5.1 8 Norte 21 Noroeste 0 900.8 1 72
2020-01-17 18:00:00 6.7 12 Noroeste 23 Noroeste 0 900.5 0.7 63
2020-01-17 17:00:00 8.7 13 Noroeste 23 Noroeste 0 900.2 0.3 56
2020-01-17 16:00:00 9.1 13 Noroeste 28 Noroeste 0 899.8 -0.7 53
2020-01-17 15:00:00 8.5 16 Noroeste 30 Noroeste 0 899.8 -1 60
2020-01-17 14:00:00 8 19 Oeste 31 Noroeste 0 899.9 -0.2 64
2020-01-17 13:00:00 6.8 16 Noroeste 33 Noroeste 0 900.5 1.1 77
2020-01-17 12:00:00 6 21 Noroeste 39 Noroeste 0 900.8 2.2 80
2020-01-17 11:00:00 5.5 18 Noroeste 34 Noroeste 0.2 900.1 2.1 88
2020-01-17 10:00:00 5.7 13 Oeste 38 Oeste 0 899.4 2 84
2020-01-17 09:00:00 5.3 12 Oeste 25 Sudoeste 0 898.6 1.5 77
2020-01-17 08:00:00 4.6 12 Oeste 21 Oeste 0 898 1.6 78
2020-01-17 07:00:00 3.8 6 Sudoeste 15 Sudoeste 0 897.4 1 77
2020-01-17 06:00:00 1.9 8 Sudoeste 13 Oeste 0 897.1 0.8 86
2020-01-17 05:00:00 1.3 2 Sudeste 8 Sudeste 0 896.4 0.6 83
2020-01-17 04:00:00 2.4 5 Este 10 Oeste 0 896.4 1.1 82
2020-01-17 03:00:00 3.1 5 Sur 10 Sudeste 0 896.3 0.1 79
2020-01-17 02:00:00 4.3 9 Sudeste 23 Sur 0 895.8 0.5 80
2020-01-17 01:00:00 5.2 16 Sur 33 Sur 0 895.3 0.3 77
2020-01-17 00:00:00 6.7 17 Sudoeste 32 Sudoeste 0 896.2 1.5 66
2020-01-16 23:00:00 7.8 15 Sudoeste 33 Oeste 0 895.3 0.7 59
2020-01-16 22:00:00 7.8 18 Sur 37 Sur 0 895 1 59
2020-01-16 21:00:00 7.7 11 Sudoeste 40 Sudoeste 0 894.7 1.2 56
2020-01-16 20:00:00 7.9 25 Sur 44 Sur 0 894.6 0.6 51
2020-01-16 19:00:00 8.5 21 Sur 52 Sudoeste 0 894 -0.2 47
2020-01-16 18:00:00 8.7 14 Sur 48 Sur 0 893.5 -0.8 42
2020-01-16 17:00:00 8.8 27 Sur 47 Sur 0 894 -0.9 47
2020-01-16 16:00:00 10.4 12 Sudoeste 34 Sur 0 894.2 -0.8 42
2020-01-16 15:00:00 11 16 Sur 39 Sur 0 894.3 -2.4 40
2020-01-16 14:00:00 10.7 19 Sur 55 Sur 0 894.9 -1.7 49
2020-01-16 13:00:00 9.7 28 Sur 47 Sur 0 895 -1.2 62
2020-01-16 12:00:00 8.9 21 Sur 36 Sur 0 896.7 0.5 76
2020-01-16 11:00:00 6.8 14 Sudeste 30 Sudeste 0 896.6 0.9 93
2020-01-16 10:00:00 5.7 12 Sudeste 31 Sudeste 0 896.2 0.5 98
2020-01-16 09:00:00 5.4 11 Sudeste 29 Sudeste 0 896.2 0.6 98
2020-01-16 08:00:00 5.3 20 Sudeste 33 Sudeste 0 895.7 0.4 98
2020-01-16 07:00:00 5.2 19 Sudeste 29 Sudeste 0 895.7 -0.4 98
2020-01-16 06:00:00 5.1 10 Sudeste 29 Sudeste 0 895.6 -0.5 98
2020-01-16 05:00:00 5.4 15 Sudeste 30 Sur 0 895.3 -1.1 95
2020-01-16 04:00:00 5.6 13 Sudeste 26 Sudeste 0 896.1 -0.7 94
2020-01-16 03:00:00 5.5 12 Sudeste 21 Sudeste 0 896.1 -0.8 95
2020-01-16 02:00:00 5.2 13 Sudeste 26 Sudeste 0 896.4 0 94
2020-01-16 01:00:00 5 11 Sudeste 24 Sudeste 0 896.8 0.8 94
2020-01-16 00:00:00 5 12 Sudeste 23 Sudeste 0 896.9 0.7 92
2020-01-15 23:00:00 5.2 10 Sudeste 24 Sudeste 0 896.4 0.5 90
2020-01-15 22:00:00 5.2 8 Sudeste 18 Sudeste 0 896 0.5 87
2020-01-15 21:00:00 5 12 Sudeste 22 Sudeste 0 896.2 1.6 89
2020-01-15 20:00:00 5.4 13 Sudeste 24 Sudeste 0 895.9 1.6 88
2020-01-15 19:00:00 5.6 14 Sudeste 23 Sudeste 0 895.5 1.7 88
2020-01-15 18:00:00 5.9 14 Sudeste 27 Sudeste 0 894.6 1.3 84
2020-01-15 17:00:00 7.1 16 Sudeste 27 Sudeste 0 894.3 0.7 81
2020-01-15 16:00:00 7.4 15 Sudeste 31 Sudeste 0 893.8 -0.2 79
2020-01-15 15:00:00 8.3 11 Sur 27 Sudeste 0 893.3 -0.6 75
2020-01-15 14:00:00 8.1 8 Sur 24 Sudeste 0 893.6 0.6 76
2020-01-15 13:00:00 7 10 Sudeste 32 Sudeste 0 894 1.1 77
2020-01-15 12:00:00 5.2 13 Sudeste 33 Sudeste 0 893.9 2 84
2020-01-15 11:00:00 5 17 Sudeste 35 Este 0 893 1.7 81
2020-01-15 10:00:00 4.4 13 Este 27 Este 0 892.9 2.6 83
2020-01-15 09:00:00 4.5 9 Este 37 Sur 0 891.9 1.9 80
2020-01-15 08:00:00 5.9 23 Sur 40 Sur 0 891.3 1.1 71
2020-01-15 07:00:00 6.9 14 Sudoeste 34 Oeste 0 890.3 -0.4 56
2020-01-15 06:00:00 4.7 6 Sur 45 Sur 0 890 -1.4 71
2020-01-15 05:00:00 4.4 18 Sur 33 Sur 0 890.2 -1 79
2020-01-15 04:00:00 4.3 17 Sudeste 28 Sudeste 0 890.7 -0.9 83
2020-01-15 03:00:00 4 7 Sur 28 Sur 0 891.4 -0.2 85
2020-01-15 02:00:00 3.7 18 Sur 28 Sur 0 891.2 -0.5 88
2020-01-15 01:00:00 3.9 12 Sudeste 28 Sudeste 0 891.6 0 86
2020-01-15 00:00:00 3.6 9 Sudeste 25 Sudeste 0 891.6 0.2 87
2020-01-14 23:00:00 3 7 Sudeste 18 Sudeste 0 891.7 0.5 86
2020-01-14 22:00:00 2.9 10 Sudeste 23 Este 0 891.6 0.5 85
2020-01-14 21:00:00 3 14 Sudeste 28 Sudeste 0 891.4 0.4 81
2020-01-14 20:00:00 2.9 13 Sudeste 23 Sur 0 891.2 0.4 79
2020-01-14 19:00:00 3 9 Sudeste 18 Sudeste 0 891.1 0.5 77
2020-01-14 18:00:00 5 9 Sudeste 17 Sudeste 0 891 0.1 67
2020-01-14 17:00:00 7.7 8 Sudeste 19 Sudeste 0 890.8 -0.8 55
2020-01-14 16:00:00 9 7 Sudeste 14 Sudeste 0 890.6 -1.7 51
2020-01-14 15:00:00 8.8 5 Sudeste 13 Nordeste 0 890.9 -1.8 55
2020-01-14 14:00:00 7.3 4 Norte 12 Noroeste 0 891.6 -1.3 60
2020-01-14 13:00:00 5.3 3 Este 10 Sur 0 892.3 -0.3 62
2020-01-14 12:00:00 3.4 4 Sur 9 Sudoeste 0 892.7 0.7 68
2020-01-14 11:00:00 -0.3 5 Sur 10 Sur 0 892.9 1.1 74
2020-01-14 10:00:00 -3.8 2 Sudoeste 6 Sur 0 892.6 1 84
2020-01-14 09:00:00 -4 0 Calma 3 Sudeste 0 892 0.5 87
2020-01-14 08:00:00 -3.7 0 Calma 3 Norte 0 891.8 0.3 87
2020-01-14 07:00:00 -3.4 4 Nordeste 8 Nordeste 0 891.6 -0.1 87
2020-01-14 06:00:00 -3.5 3 Nordeste 8 Sur 0 891.5 -0.5 82
2020-01-14 05:00:00 -3.1 4 Sudoeste 8 Oeste 0 891.5 -0.7 82
2020-01-14 04:00:00 -2.9 4 Sur 9 Sur 0 891.7 -1.1 84
2020-01-14 03:00:00 -2.6 3 Sudoeste 7 Sur 0 892 -1.3 83
2020-01-14 02:00:00 -1.8 3 Sur 8 Sudeste 0 892.2 -1 80
2020-01-14 01:00:00 -0.5 3 Oeste 15 Este 0 892.8 0.2 76
2020-01-14 00:00:00 0 4 Sudeste 10 Sudeste 0 893.3 0.7 79
2020-01-13 23:00:00 0.7 4 Nordeste 9 Sur 0 893.2 0.6 74
2020-01-13 22:00:00 2.2 8 Sur 22 Sur 0 892.6 0.2 70
2020-01-13 21:00:00 2.4 10 Sur 21 Sur 0 892.6 0.2 71
2020-01-13 20:00:00 3.1 10 Sur 22 Sudeste 0 892.6 -0.1 69
2020-01-13 19:00:00 4 10 Sudeste 24 Sudeste 0 892.4 -0.7 64
2020-01-13 18:00:00 6.8 8 Sudeste 15 Sudeste 0 892.4 -1 52
2020-01-13 17:00:00 7.8 6 Este 11 Nordeste 0 892.7 -1.5 48
2020-01-13 16:00:00 7.7 5 Este 13 Este 0 893.1 -1.7 48
2020-01-13 15:00:00 7.5 5 Nordeste 17 Nordeste 0 893.4 -2 45
2020-01-13 14:00:00 7 10 Norte 21 Norte 0 894.2 -0.9 54
2020-01-13 13:00:00 7.3 9 Nordeste 14 Norte 0 894.8 0 35
2020-01-13 12:00:00 5.1 10 Norte 17 Norte 0 895.4 0.7 46
2020-01-13 11:00:00 2.3 0 Calma 5 Este 0 895.1 0.4 56
2020-01-13 10:00:00 -1.3 2 Noroeste 6 Sur 0 894.8 -0.1 66
2020-01-13 09:00:00 -2.8 3 Sudeste 8 Sur 0 894.7 -0.6 71
2020-01-13 08:00:00 -2.4 4 Sur 8 Sur 0 894.7 -1 70
2020-01-13 07:00:00 -2.5 0 Calma 8 Sur 0 894.9 -1.4 70
2020-01-13 06:00:00 -2.4 0 Calma 8 Sur 0 895.3 -1.3 71
2020-01-13 05:00:00 -2.5 2 Sur 4 Sur 0 895.7 -1.2 74
2020-01-13 04:00:00 -1.8 3 Sudeste 8 Sur 0 896.3 -1.2 70
2020-01-13 03:00:00 -2.2 3 Oeste 7 Sur 0 896.6 -1.4 72
2020-01-13 02:00:00 -1.8 0 Calma 8 Sudoeste 0 896.9 -1.4 71
2020-01-13 01:00:00 -1.2 4 Sur 10 Sudoeste 0 897.5 -1.1 72
2020-01-13 00:00:00 -1.1 2 Sudeste 11 Sur 0 898 -1.2 72
2020-01-12 23:00:00 -1 5 Sur 9 Sur 0 898.3 -1.1 74
2020-01-12 22:00:00 -0.5 2 Sur 4 Sur 0 898.6 -0.4 74
2020-01-12 21:00:00 0.4 0 Calma 4 Este 0 899.2 0.7 71
2020-01-12 20:00:00 2 2 Nordeste 7 Nordeste 0 899.4 0.9 65
2020-01-12 19:00:00 4.1 3 Nordeste 6 Norte 0 899 0.5 54
2020-01-12 18:00:00 6.7 5 Norte 14 Norte 0 898.5 -0.3 46
2020-01-12 17:00:00 8.2 9 Norte 16 Norte 0 898.5 -0.9 44
2020-01-12 16:00:00 9.1 7 Nordeste 15 Nordeste 0 898.5 -1.5 38
2020-01-12 15:00:00 8.4 8 Nordeste 22 Norte 0 898.8 -1.8 34
2020-01-12 14:00:00 8.5 15 Norte 22 Norte 0 899.4 -1.2 27
2020-01-12 13:00:00 9.1 6 Noroeste 10 Oeste 0 900 -0.3 22
2020-01-12 12:00:00 5.8 0 Calma 4 Oeste 0 900.6 0.5 41
2020-01-12 11:00:00 1.5 2 Sudoeste 5 Sur 0 900.6 0.5 54
2020-01-12 10:00:00 -3.9 0 Calma 5 Sudeste 0 900.3 0.3 77
2020-01-12 09:00:00 -4.7 4 Sudeste 7 Sudeste 0 900.1 0.3 74
2020-01-12 08:00:00 -4.5 4 Sudeste 8 Sur 0 900.1 0 75
2020-01-12 07:00:00 -4.4 2 Sudeste 6 Sudeste 0 900 -0.4 77
2020-01-12 06:00:00 -3.9 3 Sudeste 8 Sudeste 0 899.8 -0.3 78
2020-01-12 05:00:00 -4.3 5 Sudeste 9 Sur 0 900.1 0.1 82
2020-01-12 04:00:00 -3.6 2 Este 3 Sudeste 0 900.4 0.3 81
2020-01-12 03:00:00 -3 0 Calma 7 Sudeste 0 900.1 -0.2 80
2020-01-12 02:00:00 -2.9 3 Sudeste 6 Sur 0 900 -0.2 79
2020-01-12 01:00:00 -2.6 3 Sudeste 8 Sur 0 900.1 -0.3 82
2020-01-12 00:00:00 -1.7 3 Sudeste 7 Sudoeste 0 900.3 -0.3 86
2020-01-11 23:00:00 -1 5 Sudeste 9 Sudeste 0 900.2 -0.2 88
2020-01-11 22:00:00 0 4 Sudeste 7 Sudeste 0 900.4 0.6 85
2020-01-11 21:00:00 1.3 2 Sur 6 Norte 0 900.6 1.3 85
2020-01-11 20:00:00 2.3 3 Nordeste 8 Norte 0 900.4 1.3 83
2020-01-11 19:00:00 3.8 3 Norte 10 Norte 0 899.8 0.6 72
2020-01-11 18:00:00 6 6 Norte 15 Norte 0 899.3 0 64
2020-01-11 17:00:00 8.5 8 Norte 13 Norte 0 899.1 -0.9 52
2020-01-11 16:00:00 10.7 2 Noroeste 8 Nordeste 0 899.2 -1.5 25
2020-01-11 15:00:00 10.2 3 Sudoeste 10 Sur 0 899.3 -2.2 35
2020-01-11 14:00:00 8 3 Noroeste 6 Noroeste 0 900 -1.2 43
2020-01-11 13:00:00 5.9 2 Oeste 5 Oeste 0 900.7 -0.1 54
2020-01-11 12:00:00 2.9 3 Sudoeste 8 Sur 0 901.5 0.8 71
2020-01-11 11:00:00 0.2 3 Sur 7 Sur 0 901.2 0.7 91
2020-01-11 10:00:00 -3.4 3 Sudeste 8 Sur 0 900.8 0.5 98
2020-01-11 09:00:00 -3 4 Sur 7 Sur 0 900.7 0.6 98
2020-01-11 08:00:00 -2.3 3 Sur 8 Sudeste 0 900.5 0.2 98
2020-01-11 07:00:00 -1.6 4 Sudeste 8 Sudeste 0 900.3 -0.5 98
2020-01-11 06:00:00 -1 4 Sudeste 9 Sudeste 0 900.1 -0.7 98
2020-01-11 05:00:00 -0.9 5 Sudeste 8 Este 0 900.3 -0.3 97
2020-01-11 04:00:00 -1.1 4 Nordeste 8 Sur 0 900.8 0.2 95
2020-01-11 03:00:00 -1.5 3 Sur 5 Sur 0 900.8 0 95
2020-01-11 02:00:00 -1.4 0 Calma 8 Oeste 0 900.6 -0.3 92
2020-01-11 01:00:00 -0.1 3 Oeste 6 Oeste 0 900.6 -0.2 90
2020-01-11 00:00:00 1.1 6 Norte 24 Norte 0 900.8 0 88
2020-01-10 23:00:00 1.7 5 Noroeste 14 Norte 0 900.9 0.6 84
2020-01-10 22:00:00 2.4 8 Norte 15 Nordeste 0 900.8 0.9 82
2020-01-10 21:00:00 2.6 5 Nordeste 11 Nordeste 0 900.8 1.5 79
2020-01-10 20:00:00 3.3 6 Norte 19 Norte 0 900.3 0.9 74
2020-01-10 19:00:00 4 11 Norte 31 Norte 0 899.9 1.1 70
2020-01-10 18:00:00 4.2 17 Norte 34 Nordeste 0 899.3 1 65
2020-01-10 17:00:00 4.6 17 Norte 36 Norte 0 899.4 0.8 65
2020-01-10 16:00:00 4.9 17 Nordeste 31 Nordeste 0 898.8 -0.8 62
2020-01-10 15:00:00 5.4 20 Nordeste 33 Este 0 898.3 -1.2 62
2020-01-10 14:00:00 4.5 14 Nordeste 26 Nordeste 0 898.6 -0.6 71
2020-01-10 13:00:00 3.5 8 Norte 14 Nordeste 0 899.6 0.9 77
2020-01-10 12:00:00 2.6 5 Este 13 Nordeste 0 899.5 1.2 82
2020-01-10 11:00:00 0.8 2 Noroeste 8 Norte 0 899.2 1.2 88
2020-01-10 10:00:00 -0.4 3 Norte 13 Noroeste 0 898.7 1.6 90
2020-01-10 09:00:00 -0.2 8 Norte 19 Noroeste 0 898.3 1.5 89
2020-01-10 08:00:00 -0.2 10 Noroeste 18 Noroeste 0 898 1.3 87
2020-01-10 07:00:00 0.3 12 Noroeste 18 Noroeste 0 897.1 0.2 87
2020-01-10 06:00:00 0.8 13 Noroeste 18 Noroeste 0 896.8 0 90
2020-01-10 05:00:00 2 13 Noroeste 23 Noroeste 0 896.7 0 89
2020-01-10 04:00:00 2.6 16 Noroeste 28 Noroeste 0 896.9 0 91
2020-01-10 03:00:00 2.9 17 Noroeste 28 Noroeste 0 896.8 -0.3 88
2020-01-10 02:00:00 3.8 17 Noroeste 32 Noroeste 0 896.7 -0.1 88
2020-01-10 01:00:00 4.6 19 Noroeste 31 Noroeste 0 896.9 0.7 86
2020-01-10 00:00:00 5.4 16 Noroeste 31 Noroeste 0 897.1 0.9 83
2020-01-09 23:00:00 6.2 16 Noroeste 30 Noroeste 0 896.8 0.3 80
2020-01-09 22:00:00 6.6 16 Noroeste 32 Noroeste 0 896.2 -0.2 81
2020-01-09 21:00:00 8.5 12 Oeste 24 Oeste 0 896.2 0.2 78
2020-01-09 20:00:00 8.9 14 Oeste 30 Noroeste 0 896.5 1.4 66
2020-01-09 19:00:00 9.5 20 Noroeste 40 Noroeste 0 896.4 1.6 78
2020-01-09 18:00:00 11 19 Noroeste 37 Noroeste 0 896 0.2 68
2020-01-09 17:00:00 12.5 10 Sudoeste 20 Noroeste 0 895.1 -1.5 61
2020-01-09 16:00:00 12.6 13 Noroeste 24 Noroeste 0 894.8 -2.5 61
2020-01-09 15:00:00 12.1 10 Oeste 22 Noroeste 0 895.8 -2.2 65
2020-01-09 14:00:00 10.7 13 Oeste 27 Oeste 0 896.6 -1.1 72
2020-01-09 13:00:00 11 13 Oeste 28 Oeste 0 897.3 -0.3 66
2020-01-09 12:00:00 8.8 8 Norte 16 Norte 0 898 0.7 62
2020-01-09 11:00:00 6.9 3 Sudeste 10 Sudeste 0 897.7 1 64
2020-01-09 10:00:00 2.5 3 Sur 9 Sudeste 0 897.6 0.5 76
2020-01-09 09:00:00 1.7 2 Este 12 Sur 0 897.3 0.4 78
2020-01-09 08:00:00 1.2 0 Calma 10 Sur 0 896.7 -0.2 77
2020-01-09 07:00:00 1.4 4 Sur 8 Sur 0 897.1 -0.4 78
2020-01-09 06:00:00 2.5 2 Oeste 16 Sudeste 0 896.9 -0.9 72
2020-01-09 05:00:00 4 8 Sudeste 15 Sudeste 0 896.9 -1.2 69
2020-01-09 04:00:00 1.6 3 Sur 10 Sudeste 0 897.5 -0.8 78
2020-01-09 03:00:00 2.3 3 Sudeste 9 Sur 0 897.8 -0.9 75
2020-01-09 02:00:00 3.9 4 Sudoeste 13 Sur 0 898.1 -0.5 67
2020-01-09 01:00:00 4.7 8 Sur 15 Sur 0 898.3 -0.4 54
2020-01-09 00:00:00 4.3 8 Sur 12 Sudoeste 0 898.7 -0.1 62
2020-01-08 23:00:00 3.4 4 Sur 9 Sur 0 898.6 -0.2 74
2020-01-08 22:00:00 3.7 2 Sudoeste 8 Sur 0 898.7 0 71
2020-01-08 21:00:00 4.6 0 Calma 7 Sudeste 0 898.8 0.2 69
2020-01-08 20:00:00 5.9 3 Sudeste 4 Sur 0 898.8 0.4 68
2020-01-08 19:00:00 8.1 2 Oeste 8 Nordeste 0 898.7 0.4 59
2020-01-08 18:00:00 10.1 6 Nordeste 17 Nordeste 0 898.6 0.4 49
2020-01-08 17:00:00 12.3 9 Nordeste 15 Noroeste 0 898.4 -0.4 37
2020-01-08 16:00:00 13.9 10 Noroeste 18 Noroeste 0 898.3 -1.5 31
2020-01-08 15:00:00 15.1 3 Noroeste 9 Noroeste 0 898.2 -2.5 26
2020-01-08 14:00:00 13.7 4 Sudoeste 9 Oeste 0 898.8 -2.3 18
2020-01-08 13:00:00 10.7 3 Sudoeste 7 Oeste 0 899.8 -0.9 27
2020-01-08 12:00:00 7.7 4 Sur 7 Sur 0 900.7 0.5 33
2020-01-08 11:00:00 3.9 2 Sur 6 Sur 0 901.1 1.2 47
2020-01-08 10:00:00 0.4 0 Calma 5 Sur 0 900.7 0.9 60
2020-01-08 09:00:00 -0.4 3 Sur 4 Sur 0 900.2 0.3 62
2020-01-08 08:00:00 -0.3 0 Calma 4 Sudeste 0 899.9 -0.1 64
2020-01-08 07:00:00 -0.7 3 Sudeste 5 Sur 0 899.8 -0.7 67
2020-01-08 06:00:00 -0.8 4 Este 8 Sudeste 0 899.9 -1 69
2020-01-08 05:00:00 -1.1 4 Sudeste 8 Sudeste 0 900 -1 73
2020-01-08 04:00:00 -1 3 Sur 6 Sur 0 900.5 -0.5 77
2020-01-08 03:00:00 -0.7 4 Sur 8 Sur 0 900.9 -0.4 74
2020-01-08 02:00:00 -0.1 0 Calma 4 Este 0 901 -0.5 70
2020-01-08 01:00:00 0.6 3 Sudeste 4 Este 0 901 -0.4 69
2020-01-08 00:00:00 1 2 Sudeste 5 Este 0 901.3 0 67
2020-01-07 23:00:00 1.7 4 Este 5 Este 0 901.5 0.2 65
2020-01-07 22:00:00 1.8 2 Sur 3 Sur 0 901.4 0.4 63
2020-01-07 21:00:00 2.6 2 Este 3 Sudeste 0 901.3 0.5 58
2020-01-07 20:00:00 4.1 3 Este 4 Este 0 901.3 0.6 54
2020-01-07 19:00:00 6.5 3 Este 6 Norte 0 901 0.3 48
2020-01-07 18:00:00 10.9 4 Norte 12 Norte 0 900.8 -0.1 39
2020-01-07 17:00:00 12.7 8 Nordeste 14 Nordeste 0 900.7 -0.7 27
2020-01-07 16:00:00 13.5 10 Norte 15 Nordeste 0 900.7 -1.3 22
2020-01-07 15:00:00 13.7 9 Norte 13 Norte 0 900.9 -1.3 22
2020-01-07 14:00:00 13.8 7 Norte 12 Noroeste 0 901.4 -0.9 23
2020-01-07 13:00:00 12.2 4 Norte 9 Nordeste 0 902 -0.1 24
2020-01-07 12:00:00 8.6 0 Calma 6 Sur 0 902.2 0.7 41
2020-01-07 11:00:00 5.4 3 Sur 8 Sudeste 0 902.3 1.2 51
2020-01-07 10:00:00 -0.2 3 Sudeste 6 Sudeste 0 902.1 1.1 70
2020-01-07 09:00:00 -0.9 3 Este 6 Sudeste 0 901.5 0.4 71
2020-01-07 08:00:00 -1.9 3 Este 5 Sudeste 0 901.1 0 82
2020-01-07 07:00:00 -1.2 2 Sudeste 6 Sudeste 0 901 -0.2 80
2020-01-07 06:00:00 -1.3 2 Sudeste 9 Sur 0 901.1 -0.3 80
2020-01-07 05:00:00 -1.1 4 Sur 8 Sur 0 901.1 0 82
2020-01-07 04:00:00 -1.4 2 Sur 5 Sur 0 901.2 0 87
2020-01-07 03:00:00 -0.8 0 Calma 5 Sudeste 0 901.4 0.1 87
2020-01-07 02:00:00 -0.6 2 Sudeste 6 Sur 0 901.1 0.1 88
2020-01-07 01:00:00 -0.4 2 Sudeste 9 Sudoeste 0 901.2 0.1 85
2020-01-07 00:00:00 0.4 4 Sudoeste 6 Sudoeste 0 901.3 0.6 83
2020-01-06 23:00:00 1 0 Calma 7 Sudeste 0 901 0.6 82
2020-01-06 22:00:00 1.9 0 Calma 6 Sudeste 0 901.1 1.7 82
2020-01-06 21:00:00 3.2 3 Este 8 Sur 0 900.7 1.8 78
2020-01-06 20:00:00 4.9 4 Este 19 Nordeste 0 900.4 1.8 80
2020-01-06 19:00:00 6.6 5 Este 10 Nordeste 0 899.4 -- 58
2020-01-06 18:00:00 9.7 8 Nordeste 16 Norte 0 898.9 1 44
2020-01-06 17:00:00 12.6 8 Norte 16 Norte 0 898.6 0.3 30
2020-01-06 16:00:00 14.5 7 Norte 10 Norte 0 -- -- 22
2020-01-06 15:00:00 14.8 3 Sudoeste 8 Sudoeste 0 897.9 -1.9 25
2020-01-06 14:00:00 13 6 Sur 10 Sur 0 898.3 -1.3 32
2020-01-06 13:00:00 11.4 3 Sudoeste 5 Sur 0 899.2 -0.1 30
2020-01-06 12:00:00 8.8 3 Sur 6 Sur 0 899.8 0.7 36
2020-01-06 11:00:00 5.4 0 Calma 6 Sur 0 899.6 1 51
2020-01-06 10:00:00 -1 0 Calma 6 Sur 0 899.3 1.6 75